createdAt,value
2023-04-18T00:02:07.069Z,102885.13
2023-04-18T00:04:36.311Z,102883.94
2023-04-18T00:07:03.983Z,102871.59
2023-04-18T00:09:31.619Z,102875.94
2023-04-18T00:11:59.285Z,102883.00
2023-04-18T00:14:28.920Z,102887.56
2023-04-18T00:16:57.214Z,102887.16
2023-04-18T00:19:24.879Z,102876.38
2023-04-18T00:21:53.990Z,102884.56
2023-04-18T00:24:22.080Z,102875.59
2023-04-18T00:26:49.887Z,102892.53
2023-04-18T00:29:17.543Z,102867.44
2023-04-18T00:31:45.232Z,102874.72
2023-04-18T00:34:13.116Z,102890.72
2023-04-18T00:36:40.913Z,102877.91
2023-04-18T00:39:09.876Z,102884.78
2023-04-18T00:41:37.530Z,102874.94
2023-04-18T00:44:05.339Z,102889.19
2023-04-18T00:46:33.190Z,102880.84
2023-04-18T00:49:01.031Z,102883.41
2023-04-18T00:51:29.125Z,102877.84
2023-04-18T00:53:56.976Z,102871.16
2023-04-18T00:56:26.685Z,102887.66
2023-04-18T00:58:54.636Z,102876.75
2023-04-18T01:01:22.340Z,102876.47
2023-04-18T01:03:50.133Z,102877.09
2023-04-18T01:06:18.674Z,102865.38
2023-04-18T01:08:46.637Z,102870.88
2023-04-18T01:11:14.280Z,102873.16
2023-04-18T01:13:43.293Z,102879.91
2023-04-18T01:16:10.962Z,102873.00
2023-04-18T01:18:40.189Z,102879.66
2023-04-18T01:21:08.248Z,102877.81
2023-04-18T01:23:36.533Z,102877.16
2023-04-18T01:26:05.726Z,102877.13
2023-04-18T01:28:37.913Z,102877.47
2023-04-18T01:31:05.768Z,102868.13
2023-04-18T01:33:33.443Z,102880.19
2023-04-18T01:36:01.069Z,102868.56
2023-04-18T01:38:28.746Z,102884.09
2023-04-18T01:40:56.366Z,102872.16
2023-04-18T01:43:25.359Z,102856.66
2023-04-18T01:45:53.022Z,102869.75
2023-04-18T01:48:20.694Z,102869.31
2023-04-18T01:50:48.311Z,102862.69
2023-04-18T01:53:17.557Z,102864.47
2023-04-18T01:55:45.193Z,102865.47
2023-04-18T01:58:12.782Z,102866.03
2023-04-18T02:00:41.784Z,102880.56
2023-04-18T02:03:09.561Z,102874.59
2023-04-18T02:05:37.567Z,102859.41
2023-04-18T02:08:05.743Z,102860.91
2023-04-18T02:10:33.397Z,102868.34
2023-04-18T02:13:01.034Z,102865.19
2023-04-18T02:15:28.678Z,102853.72
2023-04-18T02:18:00.198Z,102852.88
2023-04-18T02:20:31.581Z,102844.97
2023-04-18T02:22:59.303Z,102856.94
2023-04-18T02:25:28.839Z,102858.09
2023-04-18T02:27:58.030Z,102848.03
2023-04-18T02:30:26.302Z,102853.00
2023-04-18T02:32:54.723Z,102847.16
2023-04-18T02:35:24.754Z,102862.16
2023-04-18T02:37:52.859Z,102860.66
2023-04-18T02:40:20.787Z,102859.38
2023-04-18T02:42:48.466Z,102858.66
2023-04-18T02:45:16.409Z,102857.81
2023-04-18T02:47:54.434Z,102872.38
2023-04-18T02:50:30.132Z,102862.34
2023-04-18T02:52:57.932Z,102866.44
2023-04-18T02:55:26.887Z,102864.25
2023-04-18T02:57:54.609Z,102864.19
2023-04-18T03:00:22.436Z,102871.28
2023-04-18T03:02:50.526Z,102875.94
2023-04-18T03:05:18.333Z,102869.91
2023-04-18T03:07:47.305Z,102868.13
2023-04-18T03:10:15.097Z,102861.00
2023-04-18T03:12:42.895Z,102882.53
2023-04-18T03:15:11.458Z,102873.88
2023-04-18T03:17:39.159Z,102881.84
2023-04-18T03:20:08.000Z,102873.03
2023-04-18T03:22:35.653Z,102880.47
2023-04-18T03:25:05.050Z,102878.59
2023-04-18T03:27:32.661Z,102880.75
2023-04-18T03:30:00.576Z,102866.72
2023-04-18T03:32:28.364Z,102896.72
2023-04-18T03:34:55.984Z,102883.25
2023-04-18T03:37:23.613Z,102887.84
2023-04-18T03:39:51.248Z,102887.94
2023-04-18T03:42:20.219Z,102878.25
2023-04-18T03:44:47.829Z,102890.22
2023-04-18T03:47:16.785Z,102888.88
2023-04-18T03:49:44.423Z,102896.63
2023-04-18T03:52:12.114Z,102886.59
2023-04-18T03:54:39.772Z,102905.47
2023-04-18T03:57:07.401Z,102897.09
2023-04-18T03:59:36.398Z,102891.75
2023-04-18T04:02:04.238Z,102896.84
2023-04-18T04:04:31.949Z,102900.78
2023-04-18T04:06:59.947Z,102905.13
2023-04-18T04:09:27.535Z,102895.59
2023-04-18T04:11:55.215Z,102903.50
2023-04-18T04:14:24.510Z,102899.63
2023-04-18T04:16:53.573Z,102894.91
2023-04-18T04:19:21.182Z,102895.84
2023-04-18T04:21:48.813Z,102903.06
2023-04-18T04:24:16.811Z,102906.22
2023-04-18T04:26:44.621Z,102910.06
2023-04-18T04:29:13.770Z,102910.19
2023-04-18T04:31:41.535Z,102910.94
2023-04-18T04:34:10.498Z,102917.03
2023-04-18T04:36:38.164Z,102913.59
2023-04-18T04:39:05.795Z,102914.88
2023-04-18T04:41:33.545Z,102925.13
2023-04-18T04:44:01.810Z,102914.59
2023-04-18T04:46:30.354Z,102934.75
2023-04-18T04:48:58.157Z,102921.44
2023-04-18T04:51:27.992Z,102924.38
2023-04-18T04:53:55.682Z,102921.19
2023-04-18T04:56:23.639Z,102933.84
2023-04-18T04:58:51.312Z,102931.91
2023-04-18T05:01:19.094Z,102933.56
2023-04-18T05:03:46.920Z,102936.94
2023-04-18T05:06:20.484Z,102940.41
2023-04-18T05:08:49.900Z,102942.38
2023-04-18T05:11:17.931Z,102935.06
2023-04-18T05:13:45.556Z,102939.50
2023-04-18T05:16:13.255Z,102926.13
2023-04-18T05:18:41.479Z,102930.75
2023-04-18T05:21:09.357Z,102920.66
2023-04-18T05:24:01.274Z,102923.41
2023-04-18T05:26:30.365Z,102930.06
2023-04-18T05:28:57.955Z,102925.06
2023-04-18T05:31:26.785Z,102922.41
2023-04-18T05:33:54.467Z,102931.81
2023-04-18T05:36:22.817Z,102932.13
2023-04-18T05:38:50.684Z,102931.84
2023-04-18T05:41:18.328Z,102938.88
2023-04-18T05:44:01.850Z,102936.50
2023-04-18T05:46:33.114Z,102948.25
2023-04-18T05:49:01.133Z,102947.22
2023-04-18T05:51:29.228Z,102952.59
2023-04-18T05:53:56.877Z,102944.59
2023-04-18T05:56:24.483Z,102946.31
2023-04-18T05:58:53.454Z,102947.06
2023-04-18T06:01:21.339Z,102945.97
2023-04-18T06:03:49.144Z,102938.59
2023-04-18T06:06:17.057Z,102943.53
2023-04-18T06:08:44.661Z,102943.84
2023-04-18T06:11:12.622Z,102933.63
2023-04-18T06:13:40.519Z,102938.00
2023-04-18T06:16:09.740Z,102935.72
2023-04-18T06:18:37.436Z,102936.66
2023-04-18T06:21:05.358Z,102936.50
2023-04-18T06:23:32.988Z,102949.56
2023-04-18T06:26:00.763Z,102940.16
2023-04-18T06:28:28.434Z,102936.69
2023-04-18T06:30:56.099Z,102939.53
2023-04-18T06:33:25.116Z,102941.00
2023-04-18T06:35:53.287Z,102939.25
2023-04-18T06:38:21.397Z,102939.78
2023-04-18T06:40:49.015Z,102952.97
2023-04-18T06:43:16.664Z,102956.34
2023-04-18T06:45:44.494Z,102951.34
2023-04-18T06:48:12.195Z,102946.22
2023-04-18T06:50:41.334Z,102913.63
2023-04-18T06:53:08.960Z,102948.78
2023-04-18T06:55:37.064Z,102945.28
2023-04-18T06:58:05.694Z,102954.78
2023-04-18T07:00:33.422Z,102969.44
2023-04-18T07:03:02.118Z,102964.25
2023-04-18T07:05:29.838Z,102976.88
2023-04-18T07:07:58.840Z,102964.09
2023-04-18T07:10:26.452Z,102965.88
2023-04-18T07:12:54.076Z,102967.59
2023-04-18T07:15:21.701Z,102972.13
2023-04-18T07:17:49.588Z,102960.81
2023-04-18T07:20:17.368Z,102976.00
2023-04-18T07:22:45.856Z,102962.53
2023-04-18T07:25:14.814Z,102966.16
2023-04-18T07:27:42.532Z,102966.25
2023-04-18T07:30:11.106Z,102969.84
2023-04-18T07:32:38.892Z,102955.44
2023-04-18T07:35:07.773Z,102951.84
2023-04-18T07:37:35.942Z,102962.63
2023-04-18T07:40:04.128Z,102968.47
2023-04-18T07:42:33.216Z,102952.69
2023-04-18T07:45:00.827Z,102963.22
2023-04-18T07:47:30.762Z,102956.09
2023-04-18T07:49:59.220Z,102963.19
2023-04-18T07:52:27.207Z,102967.78
2023-04-18T07:54:54.857Z,102967.69
2023-04-18T07:57:22.496Z,102981.00
2023-04-18T07:59:53.737Z,102978.56
2023-04-18T08:02:21.711Z,102977.41
2023-04-18T08:04:50.039Z,102975.81
2023-04-18T08:07:17.956Z,102975.13
2023-04-18T08:09:45.892Z,102984.19
2023-04-18T08:12:13.503Z,102976.97
2023-04-18T08:14:41.272Z,102983.25
2023-04-18T08:17:10.280Z,102975.84
2023-04-18T08:19:38.014Z,102980.06
2023-04-18T08:22:10.636Z,102956.59
2023-04-18T08:24:39.295Z,102970.00
2023-04-18T08:27:07.350Z,102978.91
2023-04-18T08:29:35.024Z,102971.16
2023-04-18T08:32:02.818Z,102978.16
2023-04-18T08:34:34.031Z,102953.16
2023-04-18T08:37:01.765Z,102940.06
2023-04-18T08:39:29.610Z,102937.25
2023-04-18T08:42:00.446Z,102943.31
2023-04-18T08:44:29.241Z,102947.09
2023-04-18T08:46:57.550Z,102954.81
2023-04-18T08:49:26.213Z,102952.59
2023-04-18T08:51:57.507Z,102954.06
2023-04-18T08:54:27.148Z,102967.09
2023-04-18T08:57:08.768Z,102953.19
2023-04-18T08:59:37.043Z,102974.03
2023-04-18T09:02:08.734Z,102967.56
2023-04-18T09:04:37.890Z,102989.84
2023-04-18T09:07:08.751Z,102975.84
2023-04-18T09:09:47.050Z,102992.03
2023-04-18T09:12:18.142Z,102978.50
2023-04-18T09:14:47.902Z,103000.72
2023-04-18T09:17:18.206Z,102996.88
2023-04-18T09:19:50.299Z,102986.97
2023-04-18T09:22:19.312Z,102993.38
2023-04-18T09:24:53.170Z,102993.84
2023-04-18T09:27:22.928Z,102997.28
2023-04-18T09:29:52.306Z,102988.69
2023-04-18T09:32:26.799Z,102976.41
2023-04-18T09:34:57.861Z,102997.78
2023-04-18T09:37:27.346Z,102997.50
2023-04-18T09:39:56.685Z,103003.88
2023-04-18T09:42:26.159Z,103005.28
2023-04-18T09:45:06.613Z,103005.44
2023-04-18T09:47:36.344Z,103000.78
2023-04-18T09:50:04.837Z,103001.97
2023-04-18T09:52:36.574Z,102977.75
2023-04-18T09:55:05.824Z,103007.81
2023-04-18T09:57:34.752Z,103007.16
2023-04-18T10:00:13.883Z,103001.63
2023-04-18T10:02:49.867Z,103006.13
2023-04-18T10:05:20.971Z,103004.78
2023-04-18T10:07:51.591Z,102997.75
2023-04-18T10:10:19.658Z,102989.84
2023-04-18T10:12:50.503Z,102993.88
2023-04-18T10:15:19.217Z,103002.06
2023-04-18T10:18:03.594Z,102997.09
2023-04-18T10:20:34.653Z,102961.50
2023-04-18T10:23:38.326Z,103000.22
2023-04-18T10:26:06.825Z,102988.81
2023-04-18T10:28:54.757Z,103004.41
2023-04-18T10:31:24.036Z,102988.56
2023-04-18T10:34:03.767Z,102987.63
2023-04-18T10:36:32.405Z,102984.13
2023-04-18T10:39:04.581Z,102998.94
2023-04-18T10:41:33.097Z,102979.38
2023-04-18T10:44:27.046Z,102987.44
2023-04-18T10:47:21.741Z,102975.94
2023-04-18T10:50:01.106Z,102980.56
2023-04-18T10:52:29.798Z,102965.84
2023-04-18T10:55:09.660Z,102969.53
2023-04-18T10:57:41.519Z,102962.53
2023-04-18T11:00:12.481Z,102967.28
2023-04-18T11:02:40.549Z,102968.81
2023-04-18T11:05:09.753Z,102969.50
2023-04-18T11:07:38.928Z,102971.03
2023-04-18T11:10:10.324Z,102949.50
2023-04-18T11:12:39.439Z,102973.81
2023-04-18T11:15:11.878Z,102972.66
2023-04-18T11:17:40.764Z,102966.97
2023-04-18T11:20:11.245Z,102959.88
2023-04-18T11:22:47.978Z,102961.28
2023-04-18T11:25:17.401Z,102961.91
2023-04-18T11:27:45.737Z,102956.34
2023-04-18T11:30:15.012Z,102945.19
2023-04-18T11:32:42.792Z,102961.56
2023-04-18T11:35:11.994Z,102954.63
2023-04-18T11:37:40.658Z,102955.53
2023-04-18T11:40:10.774Z,102963.69
2023-04-18T11:42:41.409Z,102953.19
2023-04-18T11:45:12.853Z,102958.03
2023-04-18T11:47:42.362Z,102947.47
2023-04-18T11:50:11.545Z,102956.84
2023-04-18T11:52:41.128Z,102957.50
2023-04-18T11:55:14.669Z,102956.72
2023-04-18T11:57:44.157Z,102948.53
2023-04-18T12:00:13.479Z,102964.94
2023-04-18T12:02:43.132Z,102948.25
2023-04-18T12:05:11.754Z,102959.41
2023-04-18T12:07:41.571Z,102962.97
2023-04-18T12:10:23.628Z,102957.78
2023-04-18T12:12:54.387Z,102962.50
2023-04-18T12:15:24.037Z,102951.97
2023-04-18T12:17:52.392Z,102963.97
2023-04-18T12:20:20.291Z,102957.97
2023-04-18T12:22:49.556Z,102968.69
2023-04-18T12:25:27.756Z,102961.44
2023-04-18T12:27:59.110Z,102958.06
2023-04-18T12:30:28.806Z,102953.16
2023-04-18T12:32:58.248Z,102957.41
2023-04-18T12:35:26.660Z,102958.38
2023-04-18T12:37:56.112Z,102947.75
2023-04-18T12:40:26.156Z,102947.81
2023-04-18T12:42:55.347Z,102947.56
2023-04-18T12:45:24.791Z,102956.31
2023-04-18T12:47:53.572Z,102959.78
2023-04-18T12:50:22.759Z,102958.25
2023-04-18T12:52:52.126Z,102923.41
2023-04-18T12:55:20.091Z,102953.19
2023-04-18T12:57:47.762Z,102933.81
2023-04-18T13:00:15.540Z,102949.47
2023-04-18T13:02:46.224Z,102939.19
2023-04-18T13:05:15.695Z,102937.56
2023-04-18T13:07:44.157Z,102944.38
2023-04-18T13:10:13.358Z,102925.13
2023-04-18T13:12:41.908Z,102940.16
2023-04-18T13:15:10.564Z,102939.19
2023-04-18T13:17:39.186Z,102925.41
2023-04-18T13:20:10.817Z,102925.41
2023-04-18T13:22:38.714Z,102929.66
2023-04-18T13:25:08.174Z,102936.69
2023-04-18T13:27:35.843Z,102938.34
2023-04-18T13:30:03.803Z,102935.75
2023-04-18T13:32:31.572Z,102935.72
2023-04-18T13:34:59.227Z,102929.56
2023-04-18T13:37:28.244Z,102927.81
2023-04-18T13:39:55.891Z,102930.22
2023-04-18T13:42:23.546Z,102935.72
2023-04-18T13:44:51.181Z,102940.13
2023-04-18T13:47:19.552Z,102934.94
2023-04-18T13:49:47.320Z,102923.69
2023-04-18T13:52:14.982Z,102933.88
2023-04-18T13:54:43.982Z,102932.78
2023-04-18T13:57:12.368Z,102924.28
2023-04-18T13:59:40.911Z,102938.31
2023-04-18T14:02:09.517Z,102934.94
2023-04-18T14:04:37.845Z,102935.72
2023-04-18T14:07:07.974Z,102905.31
2023-04-18T14:09:35.687Z,102927.09
2023-04-18T14:12:05.122Z,102932.34
2023-04-18T14:14:32.791Z,102871.59
2023-04-18T14:17:00.492Z,102927.03
2023-04-18T14:19:28.363Z,102923.69
2023-04-18T14:21:56.009Z,102928.88
2023-04-18T14:24:23.637Z,102918.44
2023-04-18T14:26:51.349Z,102922.72
2023-04-18T14:29:20.334Z,102927.06
2023-04-18T14:31:48.027Z,102916.75
2023-04-18T14:34:15.773Z,102921.00
2023-04-18T14:36:43.452Z,102913.25
2023-04-18T14:39:11.342Z,102919.31
2023-04-18T14:41:39.145Z,102941.00
2023-04-18T14:44:06.821Z,102940.94
2023-04-18T14:46:35.817Z,102927.13
2023-04-18T14:49:03.491Z,102922.81
2023-04-18T14:51:31.189Z,102913.19
2023-04-18T14:53:58.822Z,102918.47
2023-04-18T14:56:26.527Z,102920.19
2023-04-18T14:58:54.202Z,102913.19
2023-04-18T15:01:22.006Z,102912.28
2023-04-18T15:03:52.503Z,102918.47
2023-04-18T15:06:20.258Z,102924.53
2023-04-18T15:08:47.878Z,102925.38
2023-04-18T15:11:15.518Z,102918.31
2023-04-18T15:13:43.097Z,102915.75
2023-04-18T15:16:10.825Z,102914.00
2023-04-18T15:18:38.465Z,102921.94
2023-04-18T15:21:07.508Z,102911.38
2023-04-18T15:23:35.192Z,102918.44
2023-04-18T15:26:02.922Z,102912.34
2023-04-18T15:28:30.613Z,102917.53
2023-04-18T15:30:58.232Z,102917.56
2023-04-18T15:33:26.009Z,102913.25
2023-04-18T15:35:53.756Z,102921.03
2023-04-18T15:38:22.748Z,102920.09
2023-04-18T15:40:51.092Z,102914.72
2023-04-18T15:43:18.947Z,102925.38
2023-04-18T15:45:46.904Z,102909.75
2023-04-18T15:48:14.667Z,102922.78
2023-04-18T15:50:51.018Z,102914.06
2023-04-18T15:53:18.781Z,102925.31
2023-04-18T15:55:47.846Z,102918.44
2023-04-18T15:58:15.496Z,102915.84
2023-04-18T16:00:44.329Z,102928.84
2023-04-18T16:03:12.232Z,102926.28
2023-04-18T16:05:40.077Z,102900.13
2023-04-18T16:08:08.876Z,102901.84
2023-04-18T16:10:36.539Z,102926.28
2023-04-18T16:13:06.649Z,102911.41
2023-04-18T16:15:35.528Z,102921.94
2023-04-18T16:18:03.229Z,102927.13
2023-04-18T16:20:33.184Z,102916.59
2023-04-18T16:23:00.841Z,102920.13
2023-04-18T16:25:28.585Z,102914.97
2023-04-18T16:27:56.237Z,102920.19
2023-04-18T16:30:25.261Z,102927.03
2023-04-18T16:32:54.238Z,102920.09
2023-04-18T16:35:21.993Z,102930.50
2023-04-18T16:37:49.707Z,102932.25
2023-04-18T16:40:17.378Z,102927.13
2023-04-18T16:42:45.039Z,102929.56
2023-04-18T16:45:12.636Z,102928.78
2023-04-18T16:47:41.694Z,102932.34
2023-04-18T16:50:10.236Z,102934.06
2023-04-18T16:52:37.983Z,102935.84
2023-04-18T16:55:06.701Z,102928.00
2023-04-18T16:57:34.519Z,102920.97
2023-04-18T17:00:02.768Z,102923.38
2023-04-18T17:02:30.669Z,102934.06
2023-04-18T17:05:00.017Z,102930.59
2023-04-18T17:07:27.757Z,102926.19
2023-04-18T17:09:55.365Z,102931.34
2023-04-18T17:12:22.984Z,102930.31
2023-04-18T17:14:50.697Z,102939.97
2023-04-18T17:17:18.320Z,102937.94
2023-04-18T17:19:46.541Z,102933.72
2023-04-18T17:22:15.501Z,102938.88
2023-04-18T17:24:43.199Z,102947.63
2023-04-18T17:27:10.893Z,102948.56
2023-04-18T17:29:38.578Z,102952.94
2023-04-18T17:32:06.833Z,102958.19
2023-04-18T17:34:34.537Z,102943.19
2023-04-18T17:37:03.045Z,102953.84
2023-04-18T17:39:33.570Z,102953.03
2023-04-18T17:42:02.056Z,102942.63
2023-04-18T17:44:29.949Z,102956.41
2023-04-18T17:46:57.644Z,102956.25
2023-04-18T17:49:30.657Z,102950.00
2023-04-18T17:51:58.281Z,102966.81
2023-04-18T17:54:25.974Z,102956.09
2023-04-18T17:56:55.004Z,102974.66
2023-04-18T17:59:22.629Z,102953.19
2023-04-18T18:01:50.772Z,102950.25
2023-04-18T18:04:19.690Z,102951.84
2023-04-18T18:06:54.771Z,102969.28
2023-04-18T18:09:22.477Z,102961.44
2023-04-18T18:11:50.104Z,102968.38
2023-04-18T18:14:20.089Z,102969.22
2023-04-18T18:16:47.974Z,102965.38
2023-04-18T18:19:16.532Z,102988.22
2023-04-18T18:21:44.376Z,102990.22
2023-04-18T18:24:12.503Z,102989.53
2023-04-18T18:26:40.371Z,102994.75
2023-04-18T18:29:11.059Z,102995.66
2023-04-18T18:31:40.386Z,103000.03
2023-04-18T18:34:08.076Z,103004.13
2023-04-18T18:36:35.712Z,102998.06
2023-04-18T18:39:03.696Z,103011.31
2023-04-18T18:41:31.357Z,103018.06
2023-04-18T18:43:58.945Z,103002.34
2023-04-18T18:46:27.258Z,102992.13
2023-04-18T18:48:56.364Z,103009.66
2023-04-18T18:51:24.077Z,103015.47
2023-04-18T18:53:51.643Z,103019.09
2023-04-18T18:56:19.247Z,103027.78
2023-04-18T18:58:46.926Z,103040.34
2023-04-18T19:01:14.612Z,103027.84
2023-04-18T19:03:42.504Z,103031.28
2023-04-18T19:06:11.608Z,103037.78
2023-04-18T19:08:39.233Z,103037.63
2023-04-18T19:11:07.033Z,103051.16
2023-04-18T19:13:34.680Z,103051.03
2023-04-18T19:16:02.391Z,103047.69
2023-04-18T19:18:30.149Z,103050.97
2023-04-18T19:20:57.822Z,103062.25
2023-04-18T19:23:27.752Z,103062.09
2023-04-18T19:25:55.408Z,103053.97
2023-04-18T19:28:23.155Z,103067.50
2023-04-18T19:30:51.133Z,103057.69
2023-04-18T19:33:19.680Z,103059.50
2023-04-18T19:35:47.341Z,103064.72
2023-04-18T19:38:14.997Z,103056.69
2023-04-18T19:40:44.065Z,103064.06
2023-04-18T19:43:11.849Z,103060.00
2023-04-18T19:45:39.641Z,103070.66
2023-04-18T19:48:07.552Z,103072.09
2023-04-18T19:50:35.282Z,103074.56
2023-04-18T19:53:03.009Z,103066.63
2023-04-18T19:55:31.041Z,103054.63
2023-04-18T19:58:00.516Z,103065.19
2023-04-18T20:00:29.320Z,103067.06
2023-04-18T20:02:58.580Z,103062.38
2023-04-18T20:05:26.460Z,103072.94
2023-04-18T20:07:54.101Z,103065.50
2023-04-18T20:10:22.330Z,103008.00
2023-04-18T20:12:50.162Z,103059.28
2023-04-18T20:15:19.491Z,103073.81
2023-04-18T20:17:47.193Z,103069.41
2023-04-18T20:20:15.082Z,103072.88
2023-04-18T20:22:44.687Z,103071.59
2023-04-18T20:25:12.333Z,103064.09
2023-04-18T20:27:40.047Z,103071.66
2023-04-18T20:30:08.602Z,103079.41
2023-04-18T20:32:37.640Z,103071.19
2023-04-18T20:35:05.899Z,103076.69
2023-04-18T20:37:36.881Z,103064.81
2023-04-18T20:40:07.933Z,103068.81
2023-04-18T20:42:36.629Z,103078.72
2023-04-18T20:45:04.414Z,103076.47
2023-04-18T20:47:32.049Z,103065.19
2023-04-18T20:50:01.160Z,103080.28
2023-04-18T20:52:28.871Z,103076.41
2023-04-18T20:54:56.483Z,103071.59
2023-04-18T20:57:24.081Z,103074.94
2023-04-18T20:59:51.733Z,103076.66
2023-04-18T21:02:19.424Z,103078.78
2023-04-18T21:04:47.660Z,103092.47
2023-04-18T21:07:16.673Z,103097.66
2023-04-18T21:09:44.304Z,103083.81
2023-04-18T21:12:11.974Z,103085.19
2023-04-18T21:14:39.947Z,103095.34
2023-04-18T21:17:09.557Z,103102.03
2023-04-18T21:19:37.651Z,103097.63
2023-04-18T21:22:05.249Z,103103.06
2023-04-18T21:24:34.300Z,103102.34
2023-04-18T21:27:02.472Z,103094.44
2023-04-18T21:29:30.123Z,103094.72
2023-04-18T21:31:57.791Z,103091.28
2023-04-18T21:34:25.480Z,103098.97
2023-04-18T21:36:53.153Z,103110.22
2023-04-18T21:39:20.774Z,103106.34
2023-04-18T21:41:49.756Z,103104.91
2023-04-18T21:44:18.687Z,103097.28
2023-04-18T21:47:23.477Z,103102.78
2023-04-18T21:49:51.150Z,103100.69
2023-04-18T21:52:18.859Z,103103.13
2023-04-18T21:54:46.497Z,103109.56
2023-04-18T21:57:15.507Z,103091.28
2023-04-18T21:59:43.154Z,103090.19
2023-04-18T22:02:10.853Z,103096.47
2023-04-18T22:04:42.500Z,103101.25
2023-04-18T22:07:11.356Z,103097.03
2023-04-18T22:09:39.743Z,103095.22
2023-04-18T22:12:07.735Z,103094.78
2023-04-18T22:14:36.743Z,103097.09
2023-04-18T22:17:04.732Z,103097.00
2023-04-18T22:19:32.445Z,103103.91
2023-04-18T22:22:00.067Z,103076.91
2023-04-18T22:24:27.736Z,103105.34
2023-04-18T22:26:55.384Z,103101.28
2023-04-18T22:29:22.994Z,103106.25
2023-04-18T22:31:52.007Z,103092.34
2023-04-18T22:34:19.634Z,103098.44
2023-04-18T22:36:47.556Z,103100.44
2023-04-18T22:39:15.341Z,103107.28
2023-04-18T22:41:42.962Z,103096.16
2023-04-18T22:44:10.638Z,103102.09
2023-04-18T22:46:39.239Z,103099.72
2023-04-18T22:49:08.260Z,103106.72
2023-04-18T22:51:35.901Z,103111.84
2023-04-18T22:54:03.536Z,103107.19
2023-04-18T22:56:31.271Z,103107.97
2023-04-18T22:58:58.908Z,103102.28
2023-04-18T23:01:26.813Z,103099.44
2023-04-18T23:03:54.725Z,103108.41
2023-04-18T23:06:23.943Z,103106.63
2023-04-18T23:08:51.614Z,103094.72
2023-04-18T23:11:19.220Z,103107.56
2023-04-18T23:13:46.818Z,103105.72
2023-04-18T23:16:14.428Z,103113.00
2023-04-18T23:18:42.163Z,103060.72
2023-04-18T23:21:09.802Z,103096.75
2023-04-18T23:23:38.843Z,103097.69
2023-04-18T23:26:13.850Z,103089.44
2023-04-18T23:28:42.172Z,103092.97
2023-04-18T23:31:10.380Z,103091.22
2023-04-18T23:33:38.066Z,103085.53
2023-04-18T23:36:06.517Z,103087.50
2023-04-18T23:38:37.108Z,103079.00
2023-04-18T23:41:06.337Z,103079.75
2023-04-18T23:43:34.338Z,103067.53
2023-04-18T23:46:02.128Z,103081.59
2023-04-18T23:48:29.770Z,103078.06
2023-04-18T23:50:57.425Z,103068.78
2023-04-18T23:53:25.260Z,103065.44
2023-04-18T23:55:54.504Z,103069.44
2023-04-18T23:58:23.492Z,103064.00
